sensor_id;sensor_type;location;lat;lon;timestamp;P1;durP1;ratioP1;P2;durP2;ratioP2
63499;SDS011;49654;51.142;14.924;2024-03-29T00:01:04;3.13;;;2.50;;
63499;SDS011;49654;51.142;14.924;2024-03-29T00:03:30;4.00;;;2.70;;
63499;SDS011;49654;51.142;14.924;2024-03-29T00:05:56;4.40;;;3.00;;
63499;SDS011;49654;51.142;14.924;2024-03-29T00:08:22;3.45;;;2.53;;
63499;SDS011;49654;51.142;14.924;2024-03-29T00:10:48;3.55;;;2.40;;
63499;SDS011;49654;51.142;14.924;2024-03-29T00:13:16;5.32;;;2.88;;
63499;SDS011;49654;51.142;14.924;2024-03-29T00:15:42;3.53;;;2.58;;
63499;SDS011;49654;51.142;14.924;2024-03-29T00:18:08;3.58;;;2.40;;
63499;SDS011;49654;51.142;14.924;2024-03-29T00:20:34;3.45;;;2.50;;
63499;SDS011;49654;51.142;14.924;2024-03-29T00:23:00;3.30;;;2.75;;
63499;SDS011;49654;51.142;14.924;2024-03-29T00:25:26;3.75;;;2.53;;
63499;SDS011;49654;51.142;14.924;2024-03-29T00:27:52;4.57;;;2.70;;
63499;SDS011;49654;51.142;14.924;2024-03-29T00:30:19;2.92;;;2.50;;
63499;SDS011;49654;51.142;14.924;2024-03-29T00:32:45;3.28;;;2.38;;
63499;SDS011;49654;51.142;14.924;2024-03-29T00:35:11;5.78;;;2.50;;
63499;SDS011;49654;51.142;14.924;2024-03-29T00:37:37;4.28;;;2.22;;
63499;SDS011;49654;51.142;14.924;2024-03-29T00:40:03;3.47;;;2.30;;
63499;SDS011;49654;51.142;14.924;2024-03-29T00:42:29;3.13;;;2.50;;
63499;SDS011;49654;51.142;14.924;2024-03-29T00:44:55;3.90;;;2.70;;
63499;SDS011;49654;51.142;14.924;2024-03-29T00:47:23;4.28;;;2.53;;
63499;SDS011;49654;51.142;14.924;2024-03-29T00:49:49;3.97;;;2.70;;
63499;SDS011;49654;51.142;14.924;2024-03-29T00:52:15;3.95;;;2.60;;
63499;SDS011;49654;51.142;14.924;2024-03-29T00:54:41;3.67;;;2.58;;
63499;SDS011;49654;51.142;14.924;2024-03-29T00:57:07;4.40;;;2.85;;
63499;SDS011;49654;51.142;14.924;2024-03-29T00:59:33;3.10;;;2.65;;
63499;SDS011;49654;51.142;14.924;2024-03-29T01:01:59;3.78;;;3.05;;
63499;SDS011;49654;51.142;14.924;2024-03-29T01:04:26;4.38;;;2.72;;
63499;SDS011;49654;51.142;14.924;2024-03-29T01:06:52;3.38;;;2.60;;
63499;SDS011;49654;51.142;14.924;2024-03-29T01:09:18;4.18;;;3.13;;
63499;SDS011;49654;51.142;14.924;2024-03-29T01:11:44;4.00;;;3.00;;
63499;SDS011;49654;51.142;14.924;2024-03-29T01:14:10;3.72;;;2.95;;
63499;SDS011;49654;51.142;14.924;2024-03-29T01:16:36;3.25;;;2.80;;
63499;SDS011;49654;51.142;14.924;2024-03-29T01:19:02;3.15;;;2.80;;
63499;SDS011;49654;51.142;14.924;2024-03-29T01:21:29;5.18;;;3.40;;
63499;SDS011;49654;51.142;14.924;2024-03-29T01:23:55;3.63;;;2.75;;
63499;SDS011;49654;51.142;14.924;2024-03-29T01:26:21;5.22;;;2.97;;
63499;SDS011;49654;51.142;14.924;2024-03-29T01:28:47;4.05;;;2.97;;
63499;SDS011;49654;51.142;14.924;2024-03-29T01:31:13;4.80;;;3.08;;
63499;SDS011;49654;51.142;14.924;2024-03-29T01:33:39;4.82;;;2.85;;
63499;SDS011;49654;51.142;14.924;2024-03-29T01:36:06;3.78;;;2.65;;
63499;SDS011;49654;51.142;14.924;2024-03-29T01:38:33;3.45;;;2.97;;
63499;SDS011;49654;51.142;14.924;2024-03-29T01:41:00;3.17;;;2.70;;
63499;SDS011;49654;51.142;14.924;2024-03-29T01:43:26;4.88;;;2.90;;
63499;SDS011;49654;51.142;14.924;2024-03-29T01:45:54;2.90;;;2.63;;
63499;SDS011;49654;51.142;14.924;2024-03-29T01:48:21;4.03;;;3.13;;
63499;SDS011;49654;51.142;14.924;2024-03-29T01:50:50;3.85;;;3.17;;
63499;SDS011;49654;51.142;14.924;2024-03-29T01:53:19;3.92;;;2.72;;
63499;SDS011;49654;51.142;14.924;2024-03-29T01:55:48;5.10;;;3.22;;
63499;SDS011;49654;51.142;14.924;2024-03-29T01:58:15;3.53;;;3.10;;
63499;SDS011;49654;51.142;14.924;2024-03-29T02:00:44;6.18;;;3.30;;
63499;SDS011;49654;51.142;14.924;2024-03-29T02:03:17;3.92;;;3.00;;
63499;SDS011;49654;51.142;14.924;2024-03-29T02:05:44;4.68;;;3.10;;
63499;SDS011;49654;51.142;14.924;2024-03-29T02:08:12;4.55;;;3.08;;
63499;SDS011;49654;51.142;14.924;2024-03-29T02:10:40;3.53;;;3.08;;
63499;SDS011;49654;51.142;14.924;2024-03-29T02:13:09;3.75;;;3.08;;
63499;SDS011;49654;51.142;14.924;2024-03-29T02:15:36;3.88;;;3.15;;
63499;SDS011;49654;51.142;14.924;2024-03-29T02:18:03;4.80;;;3.45;;
63499;SDS011;49654;51.142;14.924;2024-03-29T02:20:30;3.40;;;2.80;;
63499;SDS011;49654;51.142;14.924;2024-03-29T02:23:00;3.38;;;3.08;;
63499;SDS011;49654;51.142;14.924;2024-03-29T02:25:30;4.03;;;3.00;;
63499;SDS011;49654;51.142;14.924;2024-03-29T02:27:57;4.20;;;3.00;;
63499;SDS011;49654;51.142;14.924;2024-03-29T02:30:26;4.32;;;3.28;;
63499;SDS011;49654;51.142;14.924;2024-03-29T02:32:54;4.07;;;3.25;;
63499;SDS011;49654;51.142;14.924;2024-03-29T02:35:20;3.72;;;3.33;;
63499;SDS011;49654;51.142;14.924;2024-03-29T02:37:47;3.70;;;3.13;;
63499;SDS011;49654;51.142;14.924;2024-03-29T02:40:14;3.63;;;3.03;;
63499;SDS011;49654;51.142;14.924;2024-03-29T02:42:43;3.85;;;3.10;;
63499;SDS011;49654;51.142;14.924;2024-03-29T02:45:09;4.90;;;2.97;;
63499;SDS011;49654;51.142;14.924;2024-03-29T02:47:36;3.38;;;3.08;;
63499;SDS011;49654;51.142;14.924;2024-03-29T02:50:03;4.95;;;3.20;;
63499;SDS011;49654;51.142;14.924;2024-03-29T02:52:30;5.13;;;3.08;;
63499;SDS011;49654;51.142;14.924;2024-03-29T02:54:57;4.32;;;2.90;;
63499;SDS011;49654;51.142;14.924;2024-03-29T02:57:23;3.63;;;2.90;;
63499;SDS011;49654;51.142;14.924;2024-03-29T02:59:51;3.55;;;3.15;;
63499;SDS011;49654;51.142;14.924;2024-03-29T03:02:17;3.78;;;2.55;;
63499;SDS011;49654;51.142;14.924;2024-03-29T03:04:44;3.38;;;2.60;;
63499;SDS011;49654;51.142;14.924;2024-03-29T03:07:10;3.25;;;2.50;;
63499;SDS011;49654;51.142;14.924;2024-03-29T03:09:54;4.68;;;2.85;;
63499;SDS011;49654;51.142;14.924;2024-03-29T03:12:39;3.35;;;2.50;;
63499;SDS011;49654;51.142;14.924;2024-03-29T03:15:07;5.03;;;2.70;;
63499;SDS011;49654;51.142;14.924;2024-03-29T03:17:33;4.53;;;2.80;;
63499;SDS011;49654;51.142;14.924;2024-03-29T03:20:00;6.22;;;2.70;;
63499;SDS011;49654;51.142;14.924;2024-03-29T03:22:26;4.50;;;2.75;;
63499;SDS011;49654;51.142;14.924;2024-03-29T03:24:53;5.25;;;2.60;;
63499;SDS011;49654;51.142;14.924;2024-03-29T03:27:19;3.20;;;2.53;;
63499;SDS011;49654;51.142;14.924;2024-03-29T03:29:46;3.20;;;2.67;;
63499;SDS011;49654;51.142;14.924;2024-03-29T03:32:13;3.13;;;2.10;;
63499;SDS011;49654;51.142;14.924;2024-03-29T03:34:40;3.83;;;2.72;;
63499;SDS011;49654;51.142;14.924;2024-03-29T03:37:06;3.60;;;2.80;;
63499;SDS011;49654;51.142;14.924;2024-03-29T03:39:33;4.68;;;2.60;;
63499;SDS011;49654;51.142;14.924;2024-03-29T03:42:00;5.82;;;2.50;;
63499;SDS011;49654;51.142;14.924;2024-03-29T03:44:26;3.00;;;2.47;;
63499;SDS011;49654;51.142;14.924;2024-03-29T03:46:54;4.70;;;2.30;;
63499;SDS011;49654;51.142;14.924;2024-03-29T03:49:21;3.58;;;2.35;;
63499;SDS011;49654;51.142;14.924;2024-03-29T03:51:49;3.25;;;2.22;;
63499;SDS011;49654;51.142;14.924;2024-03-29T03:54:15;2.97;;;2.30;;
63499;SDS011;49654;51.142;14.924;2024-03-29T03:56:42;3.17;;;2.30;;
63499;SDS011;49654;51.142;14.924;2024-03-29T03:59:08;3.63;;;2.20;;
63499;SDS011;49654;51.142;14.924;2024-03-29T04:01:34;3.10;;;2.50;;
63499;SDS011;49654;51.142;14.924;2024-03-29T04:04:00;3.85;;;2.30;;
63499;SDS011;49654;51.142;14.924;2024-03-29T04:06:29;3.47;;;2.50;;
63499;SDS011;49654;51.142;14.924;2024-03-29T04:08:55;4.68;;;2.40;;
63499;SDS011;49654;51.142;14.924;2024-03-29T04:11:21;3.63;;;2.42;;
63499;SDS011;49654;51.142;14.924;2024-03-29T04:13:47;3.63;;;2.30;;
63499;SDS011;49654;51.142;14.924;2024-03-29T04:16:14;4.40;;;2.33;;
63499;SDS011;49654;51.142;14.924;2024-03-29T04:18:40;3.33;;;2.05;;
63499;SDS011;49654;51.142;14.924;2024-03-29T04:21:07;3.83;;;2.35;;
63499;SDS011;49654;51.142;14.924;2024-03-29T04:23:34;4.38;;;2.40;;
63499;SDS011;49654;51.142;14.924;2024-03-29T04:26:03;4.00;;;2.10;;
63499;SDS011;49654;51.142;14.924;2024-03-29T04:28:29;3.63;;;2.30;;
63499;SDS011;49654;51.142;14.924;2024-03-29T04:30:56;2.40;;;2.13;;
63499;SDS011;49654;51.142;14.924;2024-03-29T04:33:23;3.50;;;2.10;;
63499;SDS011;49654;51.142;14.924;2024-03-29T04:35:52;4.55;;;2.20;;
63499;SDS011;49654;51.142;14.924;2024-03-29T04:38:19;3.30;;;2.10;;
63499;SDS011;49654;51.142;14.924;2024-03-29T04:40:47;3.92;;;2.25;;
63499;SDS011;49654;51.142;14.924;2024-03-29T04:43:14;3.28;;;1.95;;
63499;SDS011;49654;51.142;14.924;2024-03-29T04:45:42;2.97;;;2.15;;
63499;SDS011;49654;51.142;14.924;2024-03-29T04:48:10;2.80;;;2.10;;
63499;SDS011;49654;51.142;14.924;2024-03-29T04:50:37;3.35;;;2.20;;
63499;SDS011;49654;51.142;14.924;2024-03-29T04:53:04;4.15;;;1.90;;
63499;SDS011;49654;51.142;14.924;2024-03-29T04:55:32;2.80;;;2.10;;
63499;SDS011;49654;51.142;14.924;2024-03-29T04:58:01;5.75;;;2.50;;
63499;SDS011;49654;51.142;14.924;2024-03-29T05:00:28;2.92;;;2.20;;
63499;SDS011;49654;51.142;14.924;2024-03-29T05:02:55;6.38;;;2.83;;
63499;SDS011;49654;51.142;14.924;2024-03-29T05:05:22;3.08;;;2.25;;
63499;SDS011;49654;51.142;14.924;2024-03-29T05:07:49;4.28;;;1.95;;
63499;SDS011;49654;51.142;14.924;2024-03-29T05:10:16;2.47;;;2.08;;
63499;SDS011;49654;51.142;14.924;2024-03-29T05:12:44;4.20;;;2.03;;
63499;SDS011;49654;51.142;14.924;2024-03-29T05:15:12;3.00;;;1.88;;
63499;SDS011;49654;51.142;14.924;2024-03-29T05:17:39;3.08;;;2.15;;
63499;SDS011;49654;51.142;14.924;2024-03-29T05:20:07;4.13;;;2.08;;
63499;SDS011;49654;51.142;14.924;2024-03-29T05:22:35;2.85;;;1.90;;
63499;SDS011;49654;51.142;14.924;2024-03-29T05:25:02;4.35;;;1.90;;
63499;SDS011;49654;51.142;14.924;2024-03-29T05:27:30;3.15;;;1.95;;
63499;SDS011;49654;51.142;14.924;2024-03-29T05:29:57;2.78;;;1.77;;
63499;SDS011;49654;51.142;14.924;2024-03-29T05:32:26;3.78;;;1.90;;
63499;SDS011;49654;51.142;14.924;2024-03-29T05:34:54;3.53;;;2.22;;
63499;SDS011;49654;51.142;14.924;2024-03-29T05:37:21;3.60;;;2.53;;
63499;SDS011;49654;51.142;14.924;2024-03-29T05:39:50;3.22;;;2.00;;
63499;SDS011;49654;51.142;14.924;2024-03-29T05:42:24;4.30;;;2.75;;
63499;SDS011;49654;51.142;14.924;2024-03-29T05:44:51;10.20;;;3.58;;
63499;SDS011;49654;51.142;14.924;2024-03-29T05:47:18;8.27;;;4.90;;
63499;SDS011;49654;51.142;14.924;2024-03-29T05:49:47;3.58;;;2.90;;
63499;SDS011;49654;51.142;14.924;2024-03-29T05:52:14;5.28;;;2.38;;
63499;SDS011;49654;51.142;14.924;2024-03-29T05:54:41;6.65;;;2.47;;
63499;SDS011;49654;51.142;14.924;2024-03-29T05:57:08;5.10;;;1.95;;
63499;SDS011;49654;51.142;14.924;2024-03-29T05:59:35;2.72;;;1.65;;
63499;SDS011;49654;51.142;14.924;2024-03-29T06:02:03;3.25;;;1.58;;
63499;SDS011;49654;51.142;14.924;2024-03-29T06:04:31;2.58;;;1.50;;
63499;SDS011;49654;51.142;14.924;2024-03-29T06:07:00;2.10;;;1.60;;
63499;SDS011;49654;51.142;14.924;2024-03-29T06:09:27;4.20;;;1.63;;
63499;SDS011;49654;51.142;14.924;2024-03-29T06:11:53;2.50;;;1.50;;
63499;SDS011;49654;51.142;14.924;2024-03-29T06:14:21;3.40;;;2.03;;
63499;SDS011;49654;51.142;14.924;2024-03-29T06:17:06;3.63;;;1.75;;
63499;SDS011;49654;51.142;14.924;2024-03-29T06:19:51;5.35;;;1.45;;
63499;SDS011;49654;51.142;14.924;2024-03-29T06:22:23;2.42;;;1.40;;
63499;SDS011;49654;51.142;14.924;2024-03-29T06:24:50;2.25;;;1.40;;
63499;SDS011;49654;51.142;14.924;2024-03-29T06:27:18;4.93;;;1.33;;
63499;SDS011;49654;51.142;14.924;2024-03-29T06:29:48;2.80;;;1.40;;
63499;SDS011;49654;51.142;14.924;2024-03-29T06:32:16;2.53;;;1.52;;
63499;SDS011;49654;51.142;14.924;2024-03-29T06:34:43;3.30;;;1.20;;
63499;SDS011;49654;51.142;14.924;2024-03-29T06:37:11;3.90;;;1.55;;
63499;SDS011;49654;51.142;14.924;2024-03-29T06:39:39;4.13;;;1.65;;
63499;SDS011;49654;51.142;14.924;2024-03-29T06:42:07;2.03;;;1.25;;
63499;SDS011;49654;51.142;14.924;2024-03-29T06:44:34;3.17;;;1.58;;
63499;SDS011;49654;51.142;14.924;2024-03-29T06:47:02;3.70;;;1.80;;
63499;SDS011;49654;51.142;14.924;2024-03-29T06:49:29;3.60;;;1.38;;
63499;SDS011;49654;51.142;14.924;2024-03-29T06:51:57;3.22;;;1.60;;
63499;SDS011;49654;51.142;14.924;2024-03-29T06:54:26;3.92;;;1.70;;
63499;SDS011;49654;51.142;14.924;2024-03-29T06:56:55;3.05;;;1.65;;
63499;SDS011;49654;51.142;14.924;2024-03-29T06:59:22;3.05;;;1.60;;
63499;SDS011;49654;51.142;14.924;2024-03-29T07:01:50;2.15;;;1.60;;
63499;SDS011;49654;51.142;14.924;2024-03-29T07:04:18;5.07;;;1.52;;
63499;SDS011;49654;51.142;14.924;2024-03-29T07:06:46;1.83;;;1.58;;
63499;SDS011;49654;51.142;14.924;2024-03-29T07:09:16;3.08;;;1.80;;
63499;SDS011;49654;51.142;14.924;2024-03-29T07:11:45;3.10;;;1.90;;
63499;SDS011;49654;51.142;14.924;2024-03-29T07:14:13;3.30;;;1.50;;
63499;SDS011;49654;51.142;14.924;2024-03-29T07:16:40;3.63;;;1.90;;
63499;SDS011;49654;51.142;14.924;2024-03-29T07:19:07;2.10;;;1.67;;
63499;SDS011;49654;51.142;14.924;2024-03-29T07:21:34;3.05;;;1.58;;
63499;SDS011;49654;51.142;14.924;2024-03-29T07:24:01;2.30;;;1.40;;
63499;SDS011;49654;51.142;14.924;2024-03-29T07:26:27;3.28;;;1.30;;
63499;SDS011;49654;51.142;14.924;2024-03-29T07:28:54;2.08;;;1.40;;
63499;SDS011;49654;51.142;14.924;2024-03-29T07:31:22;2.05;;;1.40;;
63499;SDS011;49654;51.142;14.924;2024-03-29T07:33:49;2.88;;;1.48;;
63499;SDS011;49654;51.142;14.924;2024-03-29T07:36:16;1.65;;;1.40;;
63499;SDS011;49654;51.142;14.924;2024-03-29T07:38:43;3.95;;;1.40;;
63499;SDS011;49654;51.142;14.924;2024-03-29T07:41:09;3.10;;;1.60;;
63499;SDS011;49654;51.142;14.924;2024-03-29T07:43:37;2.28;;;1.30;;
63499;SDS011;49654;51.142;14.924;2024-03-29T07:46:05;3.10;;;1.70;;
63499;SDS011;49654;51.142;14.924;2024-03-29T07:48:35;2.25;;;1.50;;
63499;SDS011;49654;51.142;14.924;2024-03-29T07:51:02;1.60;;;1.50;;
63499;SDS011;49654;51.142;14.924;2024-03-29T07:53:29;2.20;;;1.48;;
63499;SDS011;49654;51.142;14.924;2024-03-29T07:55:56;2.65;;;1.45;;
63499;SDS011;49654;51.142;14.924;2024-03-29T07:58:23;2.13;;;1.50;;
63499;SDS011;49654;51.142;14.924;2024-03-29T08:00:51;1.45;;;1.15;;
63499;SDS011;49654;51.142;14.924;2024-03-29T08:03:20;3.20;;;1.30;;
63499;SDS011;49654;51.142;14.924;2024-03-29T08:05:57;3.80;;;1.48;;
63499;SDS011;49654;51.142;14.924;2024-03-29T08:08:24;2.33;;;1.40;;
63499;SDS011;49654;51.142;14.924;2024-03-29T08:10:52;4.30;;;1.50;;
63499;SDS011;49654;51.142;14.924;2024-03-29T08:13:20;2.45;;;1.58;;
63499;SDS011;49654;51.142;14.924;2024-03-29T08:15:48;2.90;;;1.40;;
63499;SDS011;49654;51.142;14.924;2024-03-29T08:18:15;2.90;;;1.70;;
63499;SDS011;49654;51.142;14.924;2024-03-29T08:20:41;4.97;;;1.90;;
63499;SDS011;49654;51.142;14.924;2024-03-29T08:23:10;4.60;;;1.60;;
63499;SDS011;49654;51.142;14.924;2024-03-29T08:25:37;4.18;;;1.83;;
63499;SDS011;49654;51.142;14.924;2024-03-29T08:28:04;3.40;;;1.58;;
63499;SDS011;49654;51.142;14.924;2024-03-29T08:30:31;2.35;;;1.75;;
63499;SDS011;49654;51.142;14.924;2024-03-29T08:33:00;3.38;;;1.40;;
63499;SDS011;49654;51.142;14.924;2024-03-29T08:35:29;3.10;;;1.42;;
63499;SDS011;49654;51.142;14.924;2024-03-29T08:37:55;2.63;;;1.77;;
63499;SDS011;49654;51.142;14.924;2024-03-29T08:40:23;6.32;;;1.55;;
63499;SDS011;49654;51.142;14.924;2024-03-29T08:42:50;4.32;;;1.52;;
63499;SDS011;49654;51.142;14.924;2024-03-29T08:45:17;3.42;;;1.30;;
63499;SDS011;49654;51.142;14.924;2024-03-29T08:47:44;2.00;;;1.50;;
63499;SDS011;49654;51.142;14.924;2024-03-29T08:50:11;2.75;;;1.38;;
63499;SDS011;49654;51.142;14.924;2024-03-29T08:52:39;3.40;;;1.38;;
63499;SDS011;49654;51.142;14.924;2024-03-29T08:55:07;3.55;;;1.50;;
63499;SDS011;49654;51.142;14.924;2024-03-29T08:57:35;3.47;;;1.50;;
63499;SDS011;49654;51.142;14.924;2024-03-29T09:00:02;1.98;;;1.35;;
63499;SDS011;49654;51.142;14.924;2024-03-29T09:02:30;3.00;;;1.20;;
63499;SDS011;49654;51.142;14.924;2024-03-29T09:04:57;3.22;;;1.42;;
63499;SDS011;49654;51.142;14.924;2024-03-29T09:07:24;1.98;;;1.25;;
63499;SDS011;49654;51.142;14.924;2024-03-29T09:09:51;1.88;;;1.30;;
63499;SDS011;49654;51.142;14.924;2024-03-29T09:12:18;2.28;;;1.17;;
63499;SDS011;49654;51.142;14.924;2024-03-29T09:14:46;2.90;;;1.27;;
63499;SDS011;49654;51.142;14.924;2024-03-29T09:17:13;2.38;;;1.25;;
63499;SDS011;49654;51.142;14.924;2024-03-29T09:19:40;3.28;;;1.20;;
63499;SDS011;49654;51.142;14.924;2024-03-29T09:22:07;2.17;;;1.38;;
63499;SDS011;49654;51.142;14.924;2024-03-29T09:24:34;2.25;;;1.15;;
63499;SDS011;49654;51.142;14.924;2024-03-29T09:27:01;2.25;;;1.30;;
63499;SDS011;49654;51.142;14.924;2024-03-29T09:29:28;2.33;;;1.60;;
63499;SDS011;49654;51.142;14.924;2024-03-29T09:31:57;2.60;;;1.40;;
63499;SDS011;49654;51.142;14.924;2024-03-29T09:34:24;2.63;;;1.42;;
63499;SDS011;49654;51.142;14.924;2024-03-29T09:36:51;4.72;;;1.70;;
63499;SDS011;49654;51.142;14.924;2024-03-29T09:39:18;4.63;;;1.83;;
63499;SDS011;49654;51.142;14.924;2024-03-29T09:41:45;4.82;;;2.20;;
63499;SDS011;49654;51.142;14.924;2024-03-29T09:44:12;3.28;;;1.25;;
63499;SDS011;49654;51.142;14.924;2024-03-29T09:46:39;2.50;;;1.25;;
63499;SDS011;49654;51.142;14.924;2024-03-29T09:49:11;2.15;;;1.10;;
63499;SDS011;49654;51.142;14.924;2024-03-29T09:51:38;2.25;;;1.20;;
63499;SDS011;49654;51.142;14.924;2024-03-29T09:54:06;3.20;;;1.50;;
63499;SDS011;49654;51.142;14.924;2024-03-29T09:56:38;2.75;;;1.30;;
63499;SDS011;49654;51.142;14.924;2024-03-29T09:59:06;1.98;;;1.25;;
63499;SDS011;49654;51.142;14.924;2024-03-29T10:01:34;2.38;;;1.10;;
63499;SDS011;49654;51.142;14.924;2024-03-29T10:04:01;4.03;;;1.40;;
63499;SDS011;49654;51.142;14.924;2024-03-29T10:06:30;2.53;;;1.10;;
63499;SDS011;49654;51.142;14.924;2024-03-29T10:09:00;2.65;;;1.10;;
63499;SDS011;49654;51.142;14.924;2024-03-29T10:11:27;2.40;;;1.20;;
63499;SDS011;49654;51.142;14.924;2024-03-29T10:13:54;3.58;;;1.30;;
63499;SDS011;49654;51.142;14.924;2024-03-29T10:16:21;1.73;;;1.20;;
63499;SDS011;49654;51.142;14.924;2024-03-29T10:18:50;2.53;;;1.02;;
63499;SDS011;49654;51.142;14.924;2024-03-29T10:21:17;1.00;;;0.80;;
63499;SDS011;49654;51.142;14.924;2024-03-29T10:23:46;1.98;;;1.13;;
63499;SDS011;49654;51.142;14.924;2024-03-29T10:26:14;2.35;;;1.15;;
63499;SDS011;49654;51.142;14.924;2024-03-29T10:28:43;1.90;;;1.08;;
63499;SDS011;49654;51.142;14.924;2024-03-29T10:31:11;1.90;;;1.20;;
63499;SDS011;49654;51.142;14.924;2024-03-29T10:33:41;2.53;;;1.17;;
63499;SDS011;49654;51.142;14.924;2024-03-29T10:36:10;1.77;;;0.90;;
63499;SDS011;49654;51.142;14.924;2024-03-29T10:38:38;2.45;;;1.38;;
63499;SDS011;49654;51.142;14.924;2024-03-29T10:41:06;1.75;;;1.10;;
63499;SDS011;49654;51.142;14.924;2024-03-29T10:43:33;1.65;;;0.90;;
63499;SDS011;49654;51.142;14.924;2024-03-29T10:46:01;2.65;;;0.98;;
63499;SDS011;49654;51.142;14.924;2024-03-29T10:48:29;1.77;;;1.00;;
63499;SDS011;49654;51.142;14.924;2024-03-29T10:50:58;2.65;;;1.30;;
63499;SDS011;49654;51.142;14.924;2024-03-29T10:53:26;4.07;;;1.20;;
63499;SDS011;49654;51.142;14.924;2024-03-29T10:55:54;1.98;;;1.10;;
63499;SDS011;49654;51.142;14.924;2024-03-29T10:58:25;2.90;;;1.02;;
63499;SDS011;49654;51.142;14.924;2024-03-29T11:00:56;2.15;;;1.10;;
63499;SDS011;49654;51.142;14.924;2024-03-29T11:03:26;3.75;;;1.20;;
63499;SDS011;49654;51.142;14.924;2024-03-29T11:06:01;2.08;;;1.10;;
63499;SDS011;49654;51.142;14.924;2024-03-29T11:08:31;1.63;;;0.98;;
63499;SDS011;49654;51.142;14.924;2024-03-29T11:11:03;2.38;;;0.88;;
63499;SDS011;49654;51.142;14.924;2024-03-29T11:13:33;2.80;;;1.13;;
63499;SDS011;49654;51.142;14.924;2024-03-29T11:16:04;3.20;;;0.93;;
63499;SDS011;49654;51.142;14.924;2024-03-29T11:18:31;3.90;;;1.20;;
63499;SDS011;49654;51.142;14.924;2024-03-29T11:20:59;2.10;;;1.00;;
63499;SDS011;49654;51.142;14.924;2024-03-29T11:23:31;2.78;;;1.25;;
63499;SDS011;49654;51.142;14.924;2024-03-29T11:25:58;3.35;;;1.30;;
63499;SDS011;49654;51.142;14.924;2024-03-29T11:28:26;1.60;;;1.02;;
63499;SDS011;49654;51.142;14.924;2024-03-29T11:30:59;4.05;;;1.10;;
63499;SDS011;49654;51.142;14.924;2024-03-29T11:33:30;5.00;;;1.30;;
63499;SDS011;49654;51.142;14.924;2024-03-29T11:35:59;2.63;;;1.15;;
63499;SDS011;49654;51.142;14.924;2024-03-29T11:38:33;3.92;;;1.42;;
63499;SDS011;49654;51.142;14.924;2024-03-29T11:41:02;1.60;;;1.13;;
63499;SDS011;49654;51.142;14.924;2024-03-29T11:43:29;2.08;;;1.08;;
63499;SDS011;49654;51.142;14.924;2024-03-29T11:45:59;4.13;;;1.45;;
63499;SDS011;49654;51.142;14.924;2024-03-29T11:48:27;4.05;;;1.63;;
63499;SDS011;49654;51.142;14.924;2024-03-29T11:50:56;5.32;;;1.33;;
63499;SDS011;49654;51.142;14.924;2024-03-29T11:53:24;4.13;;;1.00;;
63499;SDS011;49654;51.142;14.924;2024-03-29T11:55:53;2.10;;;0.95;;
63499;SDS011;49654;51.142;14.924;2024-03-29T11:58:20;2.15;;;1.00;;
63499;SDS011;49654;51.142;14.924;2024-03-29T12:00:48;2.00;;;0.93;;
63499;SDS011;49654;51.142;14.924;2024-03-29T12:03:17;3.35;;;1.15;;
63499;SDS011;49654;51.142;14.924;2024-03-29T12:05:46;2.28;;;1.10;;
63499;SDS011;49654;51.142;14.924;2024-03-29T12:08:13;2.33;;;0.95;;
63499;SDS011;49654;51.142;14.924;2024-03-29T12:10:41;1.85;;;1.10;;
63499;SDS011;49654;51.142;14.924;2024-03-29T12:13:08;2.88;;;1.00;;
63499;SDS011;49654;51.142;14.924;2024-03-29T12:15:35;2.20;;;1.10;;
63499;SDS011;49654;51.142;14.924;2024-03-29T12:18:03;1.52;;;1.02;;
63499;SDS011;49654;51.142;14.924;2024-03-29T12:20:32;1.90;;;0.95;;
63499;SDS011;49654;51.142;14.924;2024-03-29T12:22:59;1.75;;;1.05;;
63499;SDS011;49654;51.142;14.924;2024-03-29T12:25:27;1.83;;;0.93;;
63499;SDS011;49654;51.142;14.924;2024-03-29T12:27:55;2.20;;;0.82;;
63499;SDS011;49654;51.142;14.924;2024-03-29T12:30:22;1.52;;;1.02;;
63499;SDS011;49654;51.142;14.924;2024-03-29T12:32:59;2.35;;;0.98;;
63499;SDS011;49654;51.142;14.924;2024-03-29T12:35:27;1.20;;;0.90;;
63499;SDS011;49654;51.142;14.924;2024-03-29T12:37:57;1.50;;;0.90;;
63499;SDS011;49654;51.142;14.924;2024-03-29T12:40:25;1.52;;;0.90;;
63499;SDS011;49654;51.142;14.924;2024-03-29T12:42:55;2.00;;;1.00;;
63499;SDS011;49654;51.142;14.924;2024-03-29T12:45:23;1.55;;;1.00;;
63499;SDS011;49654;51.142;14.924;2024-03-29T12:47:50;2.17;;;0.90;;
63499;SDS011;49654;51.142;14.924;2024-03-29T12:50:19;3.47;;;0.93;;
63499;SDS011;49654;51.142;14.924;2024-03-29T12:52:53;1.60;;;0.80;;
63499;SDS011;49654;51.142;14.924;2024-03-29T12:55:22;1.92;;;0.90;;
63499;SDS011;49654;51.142;14.924;2024-03-29T12:57:50;1.40;;;0.93;;
63499;SDS011;49654;51.142;14.924;2024-03-29T13:00:19;3.03;;;1.20;;
63499;SDS011;49654;51.142;14.924;2024-03-29T13:02:46;2.47;;;1.15;;
63499;SDS011;49654;51.142;14.924;2024-03-29T13:05:13;2.42;;;0.90;;
63499;SDS011;49654;51.142;14.924;2024-03-29T13:07:40;2.05;;;1.08;;
63499;SDS011;49654;51.142;14.924;2024-03-29T13:10:07;1.35;;;0.90;;
63499;SDS011;49654;51.142;14.924;2024-03-29T13:12:40;1.83;;;1.00;;
63499;SDS011;49654;51.142;14.924;2024-03-29T13:15:16;2.20;;;1.00;;
63499;SDS011;49654;51.142;14.924;2024-03-29T13:17:44;1.17;;;0.95;;
63499;SDS011;49654;51.142;14.924;2024-03-29T13:20:13;2.35;;;0.90;;
63499;SDS011;49654;51.142;14.924;2024-03-29T13:22:41;1.90;;;0.65;;
63499;SDS011;49654;51.142;14.924;2024-03-29T13:25:10;1.23;;;0.80;;
63499;SDS011;49654;51.142;14.924;2024-03-29T13:27:37;1.27;;;0.80;;
63499;SDS011;49654;51.142;14.924;2024-03-29T13:30:08;1.20;;;0.82;;
63499;SDS011;49654;51.142;14.924;2024-03-29T13:32:37;1.35;;;0.90;;
63499;SDS011;49654;51.142;14.924;2024-03-29T13:35:06;2.80;;;1.55;;
63499;SDS011;49654;51.142;14.924;2024-03-29T13:37:36;2.63;;;1.33;;
63499;SDS011;49654;51.142;14.924;2024-03-29T13:40:04;1.05;;;0.80;;
63499;SDS011;49654;51.142;14.924;2024-03-29T13:42:32;0.85;;;0.80;;
63499;SDS011;49654;51.142;14.924;2024-03-29T13:44:59;2.95;;;1.00;;
63499;SDS011;49654;51.142;14.924;2024-03-29T13:47:28;1.13;;;0.98;;
63499;SDS011;49654;51.142;14.924;2024-03-29T13:49:59;2.08;;;1.20;;
63499;SDS011;49654;51.142;14.924;2024-03-29T13:52:32;2.58;;;1.10;;
63499;SDS011;49654;51.142;14.924;2024-03-29T13:55:00;2.53;;;1.00;;
63499;SDS011;49654;51.142;14.924;2024-03-29T13:57:27;1.33;;;1.00;;
63499;SDS011;49654;51.142;14.924;2024-03-29T13:59:54;2.00;;;1.00;;
63499;SDS011;49654;51.142;14.924;2024-03-29T14:02:21;1.05;;;0.75;;
63499;SDS011;49654;51.142;14.924;2024-03-29T14:04:53;1.83;;;1.10;;
63499;SDS011;49654;51.142;14.924;2024-03-29T14:07:20;1.33;;;0.93;;
63499;SDS011;49654;51.142;14.924;2024-03-29T14:09:50;1.42;;;0.90;;
63499;SDS011;49654;51.142;14.924;2024-03-29T14:12:17;1.63;;;1.00;;
63499;SDS011;49654;51.142;14.924;2024-03-29T14:14:47;2.47;;;1.20;;
63499;SDS011;49654;51.142;14.924;2024-03-29T14:17:16;2.53;;;1.10;;
63499;SDS011;49654;51.142;14.924;2024-03-29T14:19:42;2.10;;;1.00;;
63499;SDS011;49654;51.142;14.924;2024-03-29T14:22:10;4.88;;;1.45;;
63499;SDS011;49654;51.142;14.924;2024-03-29T14:24:41;1.73;;;1.10;;
63499;SDS011;49654;51.142;14.924;2024-03-29T14:27:08;3.53;;;1.00;;
63499;SDS011;49654;51.142;14.924;2024-03-29T14:29:35;2.55;;;1.23;;
63499;SDS011;49654;51.142;14.924;2024-03-29T14:32:03;1.55;;;1.15;;
63499;SDS011;49654;51.142;14.924;2024-03-29T14:34:30;1.98;;;1.23;;
63499;SDS011;49654;51.142;14.924;2024-03-29T14:37:00;1.65;;;1.00;;